Back to Top

Language: 

My Weather Underground Personal Weather Station Historical Data with Graphs...

Delerius Weather Station Historical Data
Daily Summary for March 28, 2017 Units:  Both    English   Metric
« Previous Day
Next Day »
Daily Weekly Monthly Yearly Custom
  High: Low: Average:
Temperature: 57.7 °F /  14.3 °C 42.4 °F /  5.8 °C 48.8 °F /  9.3 °C
Dew Point: 49.0 °F /  9.4 °C 39.8 °F /  4.3 °C 44.2 °F /  6.8 °C
Humidity: 95 % 69 % 85 %
Wind Speed: 10.0 mph /  16.1 km/h - 5 mph /  8 km/h
Wind Gust: 20.0 mph /  32.2 km/h - -
Wind:- - SSE
Pressure: 30.16 in /  1021.2 hPa 30.00 in /  1015.8 hPa -
Precipitation: 0.00 in /  0 mm    
Historical Graphs
 
 
Tabular Data for March 28, 2017
Time Temperature Dew Point Pressure Wind Wind Speed Wind Gust Humidity Rainfall Rate (Hourly) solar Conditions
00:00 44.6 °F /  7 °C 41.3 °F /  5.2 °C 30.16 in /  1021.2 hPa East 2.0 mph /  3.2 km/h 7.0 mph /  11.3 km/h 88 % 0.00 in /  0 mm 0 W/m2
00:05 44.4 °F /  6.9 °C 41.1 °F /  5.1 °C 30.16 in /  1021.2 hPa East 1.0 mph /  1.6 km/h 6.0 mph /  9.7 km/h 88 % 0.00 in /  0 mm 0 W/m2
00:10 44.4 °F /  6.9 °C 41.1 °F /  5.1 °C 30.16 in /  1021.2 hPa East 2.0 mph /  3.2 km/h 6.0 mph /  9.7 km/h 88 % 0.00 in /  0 mm 0 W/m2
00:15 44.4 °F /  6.9 °C 41.1 °F /  5.1 °C 30.16 in /  1021.2 hPa East 2.0 mph /  3.2 km/h 5.0 mph /  8 km/h 88 % 0.00 in /  0 mm 0 W/m2
00:20 44.4 °F /  6.9 °C 41.1 °F /  5.1 °C 30.16 in /  1021.2 hPa East 1.0 mph /  1.6 km/h 5.0 mph /  8 km/h 88 % 0.00 in /  0 mm 0 W/m2
00:25 44.2 °F /  6.8 °C 41.2 °F /  5.1 °C 30.16 in /  1021.2 hPa ESE 2.0 mph /  3.2 km/h 6.0 mph /  9.7 km/h 89 % 0.00 in /  0 mm 0 W/m2
00:30 44.2 °F /  6.8 °C 40.9 °F /  4.9 °C 30.16 in /  1021.2 hPa ESE 2.0 mph /  3.2 km/h 6.0 mph /  9.7 km/h 88 % 0.00 in /  0 mm 0 W/m2
00:35 44.2 °F /  6.8 °C 40.9 °F /  4.9 °C 30.15 in /  1020.9 hPa East 1.0 mph /  1.6 km/h 6.0 mph /  9.7 km/h 88 % 0.00 in /  0 mm 0 W/m2
00:40 44.2 °F /  6.8 °C 40.9 °F /  4.9 °C 30.15 in /  1020.9 hPa East 1.0 mph /  1.6 km/h 6.0 mph /  9.7 km/h 88 % 0.00 in /  0 mm 0 W/m2
00:43 44.2 °F /  6.8 °C 40.9 °F /  4.9 °C 30.15 in /  1020.9 hPa East 2.0 mph /  3.2 km/h 6.0 mph /  9.7 km/h 88 % 0.00 in /  0 mm 0 W/m2
00:48 44.1 °F /  6.7 °C 40.7 °F /  4.8 °C 30.15 in /  1020.9 hPa East 2.0 mph /  3.2 km/h 5.0 mph /  8 km/h 88 % 0.00 in /  0 mm 0 W/m2
00:53 44.1 °F /  6.7 °C 40.7 °F /  4.8 °C 30.15 in /  1020.9 hPa East 2.0 mph /  3.2 km/h 6.0 mph /  9.7 km/h 88 % 0.00 in /  0 mm 0 W/m2
00:58 44.1 °F /  6.7 °C 40.7 °F /  4.8 °C 30.15 in /  1020.9 hPa ESE 2.0 mph /  3.2 km/h 6.0 mph /  9.7 km/h 88 % 0.00 in /  0 mm 0 W/m2
01:03 43.9 °F /  6.6 °C 40.6 °F /  4.8 °C 30.15 in /  1020.9 hPa East 2.0 mph /  3.2 km/h 6.0 mph /  9.7 km/h 88 % 0.00 in /  0 mm 0 W/m2
01:08 43.9 °F /  6.6 °C 40.6 °F /  4.8 °C 30.15 in /  1020.9 hPa East 2.0 mph /  3.2 km/h 6.0 mph /  9.7 km/h 88 % 0.00 in /  0 mm 0 W/m2
01:13 43.9 °F /  6.6 °C 40.6 °F /  4.8 °C 30.15 in /  1020.9 hPa East 2.0 mph /  3.2 km/h 6.0 mph /  9.7 km/h 88 % 0.00 in /  0 mm 0 W/m2
01:18 43.7 °F /  6.5 °C 40.4 °F /  4.7 °C 30.14 in /  1020.5 hPa East 3.0 mph /  4.8 km/h 7.0 mph /  11.3 km/h 88 % 0.00 in /  0 mm 0 W/m2
01:23 43.7 °F /  6.5 °C 40.4 °F /  4.7 °C 30.14 in /  1020.5 hPa East 3.0 mph /  4.8 km/h 7.0 mph /  11.3 km/h 88 % 0.00 in /  0 mm 0 W/m2
01:28 43.5 °F /  6.4 °C 40.2 °F /  4.6 °C 30.14 in /  1020.5 hPa East 2.0 mph /  3.2 km/h 7.0 mph /  11.3 km/h 88 % 0.00 in /  0 mm 0 W/m2
01:33 43.5 °F /  6.4 °C 40.2 °F /  4.6 °C 30.13 in /  1020.2 hPa East 2.0 mph /  3.2 km/h 6.0 mph /  9.7 km/h 88 % 0.00 in /  0 mm 0 W/m2
01:38 43.3 °F /  6.3 °C 40.0 °F /  4.4 °C 30.13 in /  1020.2 hPa East 2.0 mph /  3.2 km/h 6.0 mph /  9.7 km/h 88 % 0.00 in /  0 mm 0 W/m2
01:43 43.3 °F /  6.3 °C 40.0 °F /  4.4 °C 30.13 in /  1020.2 hPa ESE 2.0 mph /  3.2 km/h 7.0 mph /  11.3 km/h 88 % 0.00 in /  0 mm 0 W/m2
01:48 43.3 °F /  6.3 °C 40.0 °F /  4.4 °C 30.13 in /  1020.2 hPa ESE 2.0 mph /  3.2 km/h 7.0 mph /  11.3 km/h 88 % 0.00 in /  0 mm 0 W/m2
01:53 43.3 °F /  6.3 °C 40.3 °F /  4.6 °C 30.13 in /  1020.2 hPa ESE 2.0 mph /  3.2 km/h 6.0 mph /  9.7 km/h 89 % 0.00 in /  0 mm 0 W/m2
01:58 43.3 °F /  6.3 °C 40.3 °F /  4.6 °C 30.13 in /  1020.2 hPa ESE 2.0 mph /  3.2 km/h 6.0 mph /  9.7 km/h 89 % 0.00 in /  0 mm 0 W/m2
02:03 43.3 °F /  6.3 °C 40.3 °F /  4.6 °C 30.13 in /  1020.2 hPa ESE 2.0 mph /  3.2 km/h 6.0 mph /  9.7 km/h 89 % 0.00 in /  0 mm 0 W/m2
02:08 43.3 °F /  6.3 °C 40.3 °F /  4.6 °C 30.12 in /  1019.9 hPa ESE 1.0 mph /  1.6 km/h 6.0 mph /  9.7 km/h 89 % 0.00 in /  0 mm 0 W/m2
02:13 43.2 °F /  6.2 °C 40.1 °F /  4.5 °C 30.13 in /  1020.2 hPa ESE 2.0 mph /  3.2 km/h 5.0 mph /  8 km/h 89 % 0.00 in /  0 mm 0 W/m2
02:18 43.2 °F /  6.2 °C 40.1 °F /  4.5 °C 30.13 in /  1020.2 hPa ESE 2.0 mph /  3.2 km/h 5.0 mph /  8 km/h 89 % 0.00 in /  0 mm 0 W/m2
02:23 43.2 °F /  6.2 °C 40.1 °F /  4.5 °C 30.13 in /  1020.2 hPa ESE 2.0 mph /  3.2 km/h 6.0 mph /  9.7 km/h 89 % 0.00 in /  0 mm 0 W/m2
02:28 43.2 °F /  6.2 °C 40.1 °F /  4.5 °C 30.13 in /  1020.2 hPa ESE 2.0 mph /  3.2 km/h 6.0 mph /  9.7 km/h 89 % 0.00 in /  0 mm 0 W/m2
02:33 43.2 °F /  6.2 °C 40.1 °F /  4.5 °C 30.12 in /  1019.9 hPa ESE 1.0 mph /  1.6 km/h 6.0 mph /  9.7 km/h 89 % 0.00 in /  0 mm 0 W/m2
02:38 43.2 °F /  6.2 °C 40.1 °F /  4.5 °C 30.13 in /  1020.2 hPa ESE 1.0 mph /  1.6 km/h 6.0 mph /  9.7 km/h 89 % 0.00 in /  0 mm 0 W/m2
02:43 43.2 °F /  6.2 °C 40.1 °F /  4.5 °C 30.13 in /  1020.2 hPa ESE 1.0 mph /  1.6 km/h 5.0 mph /  8 km/h 89 % 0.00 in /  0 mm 0 W/m2
02:48 43.2 °F /  6.2 °C 40.1 °F /  4.5 °C 30.12 in /  1019.9 hPa ESE 2.0 mph /  3.2 km/h 5.0 mph /  8 km/h 89 % 0.00 in /  0 mm 0 W/m2
02:53 43.2 °F /  6.2 °C 40.1 °F /  4.5 °C 30.12 in /  1019.9 hPa SE 3.0 mph /  4.8 km/h 5.0 mph /  8 km/h 89 % 0.00 in /  0 mm 0 W/m2
02:58 43.2 °F /  6.2 °C 39.8 °F /  4.3 °C 30.12 in /  1019.9 hPa SE 4.0 mph /  6.4 km/h 6.0 mph /  9.7 km/h 88 % 0.00 in /  0 mm 0 W/m2
03:03 43.2 °F /  6.2 °C 39.8 °F /  4.3 °C 30.12 in /  1019.9 hPa SE 3.0 mph /  4.8 km/h 6.0 mph /  9.7 km/h 88 % 0.00 in /  0 mm 0 W/m2
03:08 43.2 °F /  6.2 °C 39.8 °F /  4.3 °C 30.12 in /  1019.9 hPa SE 4.0 mph /  6.4 km/h 7.0 mph /  11.3 km/h 88 % 0.00 in /  0 mm 0 W/m2
03:13 43.3 °F /  6.3 °C 40.0 °F /  4.4 °C 30.12 in /  1019.9 hPa SSE 2.0 mph /  3.2 km/h 7.0 mph /  11.3 km/h 88 % 0.00 in /  0 mm 0 W/m2
03:18 43.3 °F /  6.3 °C 40.0 °F /  4.4 °C 30.12 in /  1019.9 hPa SSE 1.0 mph /  1.6 km/h 3.0 mph /  4.8 km/h 88 % 0.00 in /  0 mm 0 W/m2
03:24 43.3 °F /  6.3 °C 40.0 °F /  4.4 °C 30.12 in /  1019.9 hPa Calm   3.0 mph /  4.8 km/h 88 % 0.00 in /  0 mm 0 W/m2
03:29 43.3 °F /  6.3 °C 40.0 °F /  4.4 °C 30.12 in /  1019.9 hPa SE 1.0 mph /  1.6 km/h 4.0 mph /  6.4 km/h 88 % 0.00 in /  0 mm 0 W/m2
03:34 43.3 °F /  6.3 °C 40.0 °F /  4.4 °C 30.12 in /  1019.9 hPa SE 2.0 mph /  3.2 km/h 5.0 mph /  8 km/h 88 % 0.00 in /  0 mm 0 W/m2
03:39 43.3 °F /  6.3 °C 40.0 °F /  4.4 °C 30.12 in /  1019.9 hPa SSE 2.0 mph /  3.2 km/h 5.0 mph /  8 km/h 88 % 0.00 in /  0 mm 0 W/m2
03:43 43.3 °F /  6.3 °C 40.3 °F /  4.6 °C 30.12 in /  1019.9 hPa SSE 1.0 mph /  1.6 km/h 5.0 mph /  8 km/h 89 % 0.00 in /  0 mm 0 W/m2
03:48 43.5 °F /  6.4 °C 40.5 °F /  4.7 °C 30.12 in /  1019.9 hPa South 1.0 mph /  1.6 km/h 9.0 mph /  14.5 km/h 89 % 0.00 in /  0 mm 0 W/m2
03:54 43.5 °F /  6.4 °C 40.5 °F /  4.7 °C 30.12 in /  1019.9 hPa South 2.0 mph /  3.2 km/h 9.0 mph /  14.5 km/h 89 % 0.00 in /  0 mm 0 W/m2
03:59 43.5 °F /  6.4 °C 40.8 °F /  4.9 °C 30.12 in /  1019.9 hPa SSE 2.0 mph /  3.2 km/h 6.0 mph /  9.7 km/h 90 % 0.00 in /  0 mm 0 W/m2
04:04 43.5 °F /  6.4 °C 40.8 °F /  4.9 °C 30.11 in /  1019.5 hPa SSE 2.0 mph /  3.2 km/h 5.0 mph /  8 km/h 90 % 0.00 in /  0 mm 0 W/m2
04:09 43.7 °F /  6.5 °C 41.0 °F /  5 °C 30.11 in /  1019.5 hPa SE 2.0 mph /  3.2 km/h 5.0 mph /  8 km/h 90 % 0.00 in /  0 mm 0 W/m2
04:14 43.7 °F /  6.5 °C 41.0 °F /  5 °C 30.11 in /  1019.5 hPa SE 3.0 mph /  4.8 km/h 5.0 mph /  8 km/h 90 % 0.00 in /  0 mm 0 W/m2
04:19 43.7 °F /  6.5 °C 41.0 °F /  5 °C 30.11 in /  1019.5 hPa SE 2.0 mph /  3.2 km/h 5.0 mph /  8 km/h 90 % 0.00 in /  0 mm 0 W/m2
04:24 43.5 °F /  6.4 °C 41.1 °F /  5.1 °C 30.11 in /  1019.5 hPa ESE 1.0 mph /  1.6 km/h 3.0 mph /  4.8 km/h 91 % 0.00 in /  0 mm 0 W/m2
04:29 43.7 °F /  6.5 °C 41.2 °F /  5.1 °C 30.11 in /  1019.5 hPa SE 1.0 mph /  1.6 km/h 7.0 mph /  11.3 km/h 91 % 0.00 in /  0 mm 0 W/m2
04:34 43.7 °F /  6.5 °C 41.2 °F /  5.1 °C 30.10 in /  1019.2 hPa SSE 2.0 mph /  3.2 km/h 7.0 mph /  11.3 km/h 91 % 0.00 in /  0 mm 0 W/m2
04:39 43.7 °F /  6.5 °C 41.2 °F /  5.1 °C 30.10 in /  1019.2 hPa South 2.0 mph /  3.2 km/h 6.0 mph /  9.7 km/h 91 % 0.00 in /  0 mm 0 W/m2
04:44 43.7 °F /  6.5 °C 41.2 °F /  5.1 °C 30.10 in /  1019.2 hPa SSE 1.0 mph /  1.6 km/h 4.0 mph /  6.4 km/h 91 % 0.00 in /  0 mm 0 W/m2
04:49 43.7 °F /  6.5 °C 41.2 °F /  5.1 °C 30.10 in /  1019.2 hPa South 2.0 mph /  3.2 km/h 7.0 mph /  11.3 km/h 91 % 0.00 in /  0 mm 0 W/m2
04:54 43.7 °F /  6.5 °C 41.2 °F /  5.1 °C 30.10 in /  1019.2 hPa South 3.0 mph /  4.8 km/h 7.0 mph /  11.3 km/h 91 % 0.00 in /  0 mm 0 W/m2
04:59 43.5 °F /  6.4 °C 41.1 °F /  5.1 °C 30.10 in /  1019.2 hPa South 2.0 mph /  3.2 km/h 7.0 mph /  11.3 km/h 91 % 0.00 in /  0 mm 0 W/m2
05:04 43.7 °F /  6.5 °C 41.2 °F /  5.1 °C 30.10 in /  1019.2 hPa SSE 1.0 mph /  1.6 km/h 6.0 mph /  9.7 km/h 91 % 0.00 in /  0 mm 0 W/m2
05:09 43.5 °F /  6.4 °C 41.4 °F /  5.2 °C 30.10 in /  1019.2 hPa SSE 3.0 mph /  4.8 km/h 10.0 mph /  16.1 km/h 92 % 0.00 in /  0 mm 0 W/m2
05:14 43.5 °F /  6.4 °C 41.4 °F /  5.2 °C 30.10 in /  1019.2 hPa South 5.0 mph /  8 km/h 10.0 mph /  16.1 km/h 92 % 0.00 in /  0 mm 0 W/m2
05:19 43.5 °F /  6.4 °C 41.4 °F /  5.2 °C 30.10 in /  1019.2 hPa South 3.0 mph /  4.8 km/h 8.0 mph /  12.9 km/h 92 % 0.00 in /  0 mm 0 W/m2
05:24 43.7 °F /  6.5 °C 41.5 °F /  5.3 °C 30.10 in /  1019.2 hPa SSE 2.0 mph /  3.2 km/h 7.0 mph /  11.3 km/h 92 % 0.00 in /  0 mm 0 W/m2
05:29 43.5 °F /  6.4 °C 41.4 °F /  5.2 °C 30.10 in /  1019.2 hPa SSE 4.0 mph /  6.4 km/h 8.0 mph /  12.9 km/h 92 % 0.00 in /  0 mm 0 W/m2
05:34 43.5 °F /  6.4 °C 41.4 °F /  5.2 °C 30.10 in /  1019.2 hPa SSE 5.0 mph /  8 km/h 9.0 mph /  14.5 km/h 92 % 0.00 in /  0 mm 0 W/m2
05:39 43.5 °F /  6.4 °C 41.4 °F /  5.2 °C 30.10 in /  1019.2 hPa South 5.0 mph /  8 km/h 10.0 mph /  16.1 km/h 92 % 0.00 in /  0 mm 0 W/m2
05:44 43.5 °F /  6.4 °C 41.6 °F /  5.3 °C 30.10 in /  1019.2 hPa South 3.0 mph /  4.8 km/h 10.0 mph /  16.1 km/h 93 % 0.00 in /  0 mm 0 W/m2
05:49 43.5 °F /  6.4 °C 41.6 °F /  5.3 °C 30.10 in /  1019.2 hPa SSE 3.0 mph /  4.8 km/h 7.0 mph /  11.3 km/h 93 % 0.00 in /  0 mm 0 W/m2
05:54 43.5 °F /  6.4 °C 41.6 °F /  5.3 °C 30.10 in /  1019.2 hPa SSE 3.0 mph /  4.8 km/h 7.0 mph /  11.3 km/h 93 % 0.00 in /  0 mm 0 W/m2
05:59 43.5 °F /  6.4 °C 41.6 °F /  5.3 °C 30.10 in /  1019.2 hPa SSE 3.0 mph /  4.8 km/h 7.0 mph /  11.3 km/h 93 % 0.00 in /  0 mm 0 W/m2
06:04 43.5 °F /  6.4 °C 41.6 °F /  5.3 °C 30.10 in /  1019.2 hPa SSE 4.0 mph /  6.4 km/h 8.0 mph /  12.9 km/h 93 % 0.00 in /  0 mm 0 W/m2
06:09 43.5 °F /  6.4 °C 41.6 °F /  5.3 °C 30.10 in /  1019.2 hPa SSE 5.0 mph /  8 km/h 10.0 mph /  16.1 km/h 93 % 0.00 in /  0 mm 0 W/m2
06:14 43.5 °F /  6.4 °C 41.6 °F /  5.3 °C 30.10 in /  1019.2 hPa SSE 4.0 mph /  6.4 km/h 10.0 mph /  16.1 km/h 93 % 0.00 in /  0 mm 0 W/m2
06:19 43.5 °F /  6.4 °C 41.6 °F /  5.3 °C 30.10 in /  1019.2 hPa SSE 3.0 mph /  4.8 km/h 7.0 mph /  11.3 km/h 93 % 0.00 in /  0 mm 0 W/m2
06:24 43.3 °F /  6.3 °C 41.5 °F /  5.3 °C 30.10 in /  1019.2 hPa SSE 4.0 mph /  6.4 km/h 10.0 mph /  16.1 km/h 93 % 0.00 in /  0 mm 0 W/m2
06:29 43.3 °F /  6.3 °C 41.5 °F /  5.3 °C 30.10 in /  1019.2 hPa South 5.0 mph /  8 km/h 10.0 mph /  16.1 km/h 93 % 0.00 in /  0 mm 0 W/m2
06:34 43.3 °F /  6.3 °C 41.5 °F /  5.3 °C 30.10 in /  1019.2 hPa SSW 5.0 mph /  8 km/h 9.0 mph /  14.5 km/h 93 % 0.00 in /  0 mm 0 W/m2
06:39 43.3 °F /  6.3 °C 41.7 °F /  5.4 °C 30.09 in /  1018.8 hPa SSW 3.0 mph /  4.8 km/h 7.0 mph /  11.3 km/h 94 % 0.00 in /  0 mm 0 W/m2
06:44 43.3 °F /  6.3 °C 41.7 °F /  5.4 °C 30.09 in /  1018.8 hPa SSW 3.0 mph /  4.8 km/h 7.0 mph /  11.3 km/h 94 % 0.00 in /  0 mm 0 W/m2
06:49 43.3 °F /  6.3 °C 41.7 °F /  5.4 °C 30.09 in /  1018.8 hPa SSW 2.0 mph /  3.2 km/h 6.0 mph /  9.7 km/h 94 % 0.00 in /  0 mm 0 W/m2
06:54 43.3 °F /  6.3 °C 41.7 °F /  5.4 °C 30.09 in /  1018.8 hPa SSE 3.0 mph /  4.8 km/h 6.0 mph /  9.7 km/h 94 % 0.00 in /  0 mm 0 W/m2
06:59 43.3 °F /  6.3 °C 41.7 °F /  5.4 °C 30.09 in /  1018.8 hPa SE 4.0 mph /  6.4 km/h 8.0 mph /  12.9 km/h 94 % 0.00 in /  0 mm 0 W/m2
07:04 43.2 °F /  6.2 °C 41.6 °F /  5.3 °C 30.09 in /  1018.8 hPa SSE 4.0 mph /  6.4 km/h 8.0 mph /  12.9 km/h 94 % 0.00 in /  0 mm 5 W/m2
07:09 43.2 °F /  6.2 °C 41.6 °F /  5.3 °C 30.09 in /  1018.8 hPa South 3.0 mph /  4.8 km/h 7.0 mph /  11.3 km/h 94 % 0.00 in /  0 mm 5 W/m2
07:14 43.2 °F /  6.2 °C 41.6 °F /  5.3 °C 30.09 in /  1018.8 hPa SSE 3.0 mph /  4.8 km/h 5.0 mph /  8 km/h 94 % 0.00 in /  0 mm 7 W/m2
07:19 43.2 °F /  6.2 °C 41.6 °F /  5.3 °C 30.09 in /  1018.8 hPa SE 4.0 mph /  6.4 km/h 7.0 mph /  11.3 km/h 94 % 0.00 in /  0 mm 9 W/m2
07:24 43.2 °F /  6.2 °C 41.6 °F /  5.3 °C 30.08 in /  1018.5 hPa SE 5.0 mph /  8 km/h 8.0 mph /  12.9 km/h 94 % 0.00 in /  0 mm 11 W/m2
07:29 43.0 °F /  6.1 °C 41.4 °F /  5.2 °C 30.08 in /  1018.5 hPa SE 4.0 mph /  6.4 km/h 8.0 mph /  12.9 km/h 94 % 0.00 in /  0 mm 12 W/m2
07:34 43.0 °F /  6.1 °C 41.4 °F /  5.2 °C 30.08 in /  1018.5 hPa SE 3.0 mph /  4.8 km/h 7.0 mph /  11.3 km/h 94 % 0.00 in /  0 mm 14 W/m2
07:39 43.0 °F /  6.1 °C 41.4 °F /  5.2 °C 30.08 in /  1018.5 hPa SE 4.0 mph /  6.4 km/h 8.0 mph /  12.9 km/h 94 % 0.00 in /  0 mm 18 W/m2
07:44 43.0 °F /  6.1 °C 41.4 °F /  5.2 °C 30.08 in /  1018.5 hPa SE 5.0 mph /  8 km/h 8.0 mph /  12.9 km/h 94 % 0.00 in /  0 mm 18 W/m2
07:49 42.8 °F /  6 °C 41.2 °F /  5.1 °C 30.08 in /  1018.5 hPa SE 5.0 mph /  8 km/h 9.0 mph /  14.5 km/h 94 % 0.00 in /  0 mm 16 W/m2
07:54 42.6 °F /  5.9 °C 41.3 °F /  5.2 °C 30.08 in /  1018.5 hPa SSE 5.0 mph /  8 km/h 10.0 mph /  16.1 km/h 95 % 0.00 in /  0 mm 19 W/m2
07:59 42.6 °F /  5.9 °C 41.3 °F /  5.2 °C 30.08 in /  1018.5 hPa SE 5.0 mph /  8 km/h 10.0 mph /  16.1 km/h 95 % 0.00 in /  0 mm 25 W/m2
08:04 42.4 °F /  5.8 °C 41.1 °F /  5.1 °C 30.08 in /  1018.5 hPa SE 6.0 mph /  9.7 km/h 10.0 mph /  16.1 km/h 95 % 0.00 in /  0 mm 30 W/m2
08:09 42.4 °F /  5.8 °C 41.1 °F /  5.1 °C 30.08 in /  1018.5 hPa SSE 5.0 mph /  8 km/h 8.0 mph /  12.9 km/h 95 % 0.00 in /  0 mm 33 W/m2
08:14 42.4 °F /  5.8 °C 41.1 °F /  5.1 °C 30.08 in /  1018.5 hPa SSE 5.0 mph /  8 km/h 8.0 mph /  12.9 km/h 95 % 0.00 in /  0 mm 28 W/m2
08:19 42.4 °F /  5.8 °C 41.1 °F /  5.1 °C 30.08 in /  1018.5 hPa South 5.0 mph /  8 km/h 9.0 mph /  14.5 km/h 95 % 0.00 in /  0 mm 33 W/m2
08:24 42.4 °F /  5.8 °C 41.1 °F /  5.1 °C 30.08 in /  1018.5 hPa South 5.0 mph /  8 km/h 10.0 mph /  16.1 km/h 95 % 0.00 in /  0 mm 33 W/m2
08:29 42.6 °F /  5.9 °C 41.3 °F /  5.2 °C 30.08 in /  1018.5 hPa South 5.0 mph /  8 km/h 10.0 mph /  16.1 km/h 95 % 0.00 in /  0 mm 33 W/m2
08:34 42.6 °F /  5.9 °C 41.3 °F /  5.2 °C 30.08 in /  1018.5 hPa South 4.0 mph /  6.4 km/h 8.0 mph /  12.9 km/h 95 % 0.00 in /  0 mm 30 W/m2
08:39 42.6 °F /  5.9 °C 41.3 °F /  5.2 °C 30.08 in /  1018.5 hPa SSE 4.0 mph /  6.4 km/h 8.0 mph /  12.9 km/h 95 % 0.00 in /  0 mm 25 W/m2
08:44 42.6 °F /  5.9 °C 41.3 °F /  5.2 °C 30.08 in /  1018.5 hPa SE 5.0 mph /  8 km/h 8.0 mph /  12.9 km/h 95 % 0.00 in /  0 mm 42 W/m2
08:49 42.6 °F /  5.9 °C 41.3 °F /  5.2 °C 30.08 in /  1018.5 hPa SE 5.0 mph /  8 km/h 9.0 mph /  14.5 km/h 95 % 0.00 in /  0 mm 49 W/m2
08:54 42.6 °F /  5.9 °C 41.3 °F /  5.2 °C 30.08 in /  1018.5 hPa SE 6.0 mph /  9.7 km/h 11.0 mph /  17.7 km/h 95 % 0.00 in /  0 mm 46 W/m2
08:59 42.6 °F /  5.9 °C 41.3 °F /  5.2 °C 30.08 in /  1018.5 hPa SSE 6.0 mph /  9.7 km/h 11.0 mph /  17.7 km/h 95 % 0.00 in /  0 mm 46 W/m2
09:04 42.6 °F /  5.9 °C 41.3 °F /  5.2 °C 30.08 in /  1018.5 hPa SSE 5.0 mph /  8 km/h 10.0 mph /  16.1 km/h 95 % 0.00 in /  0 mm 46 W/m2
09:10 42.8 °F /  6 °C 41.5 °F /  5.3 °C 30.08 in /  1018.5 hPa SSE 5.0 mph /  8 km/h 10.0 mph /  16.1 km/h 95 % 0.00 in /  0 mm 53 W/m2
09:15 42.8 °F /  6 °C 41.5 °F /  5.3 °C 30.08 in /  1018.5 hPa SSE 5.0 mph /  8 km/h 10.0 mph /  16.1 km/h 95 % 0.00 in /  0 mm 65 W/m2
09:20 43.0 °F /  6.1 °C 41.6 °F /  5.3 °C 30.08 in /  1018.5 hPa SSE 6.0 mph /  9.7 km/h 10.0 mph /  16.1 km/h 95 % 0.00 in /  0 mm 65 W/m2
09:25 43.0 °F /  6.1 °C 41.6 °F /  5.3 °C 30.08 in /  1018.5 hPa SSE 5.0 mph /  8 km/h 8.0 mph /  12.9 km/h 95 % 0.00 in /  0 mm 67 W/m2
09:30 43.0 °F /  6.1 °C 41.6 °F /  5.3 °C 30.08 in /  1018.5 hPa SSE 4.0 mph /  6.4 km/h 8.0 mph /  12.9 km/h 95 % 0.00 in /  0 mm 72 W/m2
09:35 43.2 °F /  6.2 °C 41.8 °F /  5.4 °C 30.08 in /  1018.5 hPa SSE 3.0 mph /  4.8 km/h 6.0 mph /  9.7 km/h 95 % 0.00 in /  0 mm 67 W/m2
09:40 43.3 °F /  6.3 °C 42.0 °F /  5.6 °C 30.08 in /  1018.5 hPa SSE 3.0 mph /  4.8 km/h 8.0 mph /  12.9 km/h 95 % 0.00 in /  0 mm 46 W/m2
09:45 43.2 °F /  6.2 °C 41.8 °F /  5.4 °C 30.08 in /  1018.5 hPa SSE 4.0 mph /  6.4 km/h 8.0 mph /  12.9 km/h 95 % 0.00 in /  0 mm 107 W/m2
09:50 43.3 °F /  6.3 °C 42.0 °F /  5.6 °C 30.08 in /  1018.5 hPa SE 6.0 mph /  9.7 km/h 9.0 mph /  14.5 km/h 95 % 0.00 in /  0 mm 90 W/m2
09:55 43.3 °F /  6.3 °C 42.0 °F /  5.6 °C 30.08 in /  1018.5 hPa SE 6.0 mph /  9.7 km/h 9.0 mph /  14.5 km/h 95 % 0.00 in /  0 mm 88 W/m2
10:00 43.3 °F /  6.3 °C 42.0 °F /  5.6 °C 30.08 in /  1018.5 hPa SE 5.0 mph /  8 km/h 9.0 mph /  14.5 km/h 95 % 0.00 in /  0 mm 111 W/m2
10:10 43.3 °F /  6.3 °C 42.0 °F /  5.6 °C 30.08 in /  1018.5 hPa SE 6.0 mph /  9.7 km/h 10.0 mph /  16.1 km/h 95 % 0.00 in /  0 mm 132 W/m2
10:15 43.5 °F /  6.4 °C 42.2 °F /  5.7 °C 30.08 in /  1018.5 hPa SSE 5.0 mph /  8 km/h 10.0 mph /  16.1 km/h 95 % 0.00 in /  0 mm 141 W/m2
10:20 43.9 °F /  6.6 °C 42.5 °F /  5.8 °C 30.08 in /  1018.5 hPa SSE 5.0 mph /  8 km/h 9.0 mph /  14.5 km/h 95 % 0.00 in /  0 mm 156 W/m2
10:25 43.9 °F /  6.6 °C 42.3 °F /  5.7 °C 30.08 in /  1018.5 hPa SSE 6.0 mph /  9.7 km/h 10.0 mph /  16.1 km/h 94 % 0.00 in /  0 mm 162 W/m2
10:30 43.9 °F /  6.6 °C 42.3 °F /  5.7 °C 30.08 in /  1018.5 hPa SSE 7.0 mph /  11.3 km/h 10.0 mph /  16.1 km/h 94 % 0.00 in /  0 mm 155 W/m2
10:35 44.1 °F /  6.7 °C 42.4 °F /  5.8 °C 30.08 in /  1018.5 hPa SE 7.0 mph /  11.3 km/h 11.0 mph /  17.7 km/h 94 % 0.00 in /  0 mm 179 W/m2
10:40 44.1 °F /  6.7 °C 42.4 °F /  5.8 °C 30.08 in /  1018.5 hPa SSE 7.0 mph /  11.3 km/h 11.0 mph /  17.7 km/h 94 % 0.00 in /  0 mm 176 W/m2
10:45 44.2 °F /  6.8 °C 42.3 °F /  5.7 °C 30.08 in /  1018.5 hPa SSE 6.0 mph /  9.7 km/h 11.0 mph /  17.7 km/h 93 % 0.00 in /  0 mm 183 W/m2
10:50 44.4 °F /  6.9 °C 42.5 °F /  5.8 °C 30.08 in /  1018.5 hPa SSE 6.0 mph /  9.7 km/h 9.0 mph /  14.5 km/h 93 % 0.00 in /  0 mm 199 W/m2
10:55 44.8 °F /  7.1 °C 42.9 °F /  6.1 °C 30.08 in /  1018.5 hPa SE 6.0 mph /  9.7 km/h 11.0 mph /  17.7 km/h 93 % 0.00 in /  0 mm 172 W/m2
11:00 45.0 °F /  7.2 °C 43.1 °F /  6.2 °C 30.08 in /  1018.5 hPa SE 6.0 mph /  9.7 km/h 11.0 mph /  17.7 km/h 93 % 0.00 in /  0 mm 171 W/m2
11:05 45.0 °F /  7.2 °C 42.8 °F /  6 °C 30.08 in /  1018.5 hPa SSE 6.0 mph /  9.7 km/h 11.0 mph /  17.7 km/h 92 % 0.00 in /  0 mm 192 W/m2
11:10 45.0 °F /  7.2 °C 42.8 °F /  6 °C 30.08 in /  1018.5 hPa SE 7.0 mph /  11.3 km/h 11.0 mph /  17.7 km/h 92 % 0.00 in /  0 mm 250 W/m2
11:15 45.1 °F /  7.3 °C 43.0 °F /  6.1 °C 30.08 in /  1018.5 hPa SSE 7.0 mph /  11.3 km/h 11.0 mph /  17.7 km/h 92 % 0.00 in /  0 mm 262 W/m2
11:20 45.1 °F /  7.3 °C 43.0 °F /  6.1 °C 30.08 in /  1018.5 hPa SSE 6.0 mph /  9.7 km/h 11.0 mph /  17.7 km/h 92 % 0.00 in /  0 mm 223 W/m2
11:25 45.3 °F /  7.4 °C 42.8 °F /  6 °C 30.08 in /  1018.5 hPa SSE 6.0 mph /  9.7 km/h 11.0 mph /  17.7 km/h 91 % 0.00 in /  0 mm 260 W/m2
11:30 45.5 °F /  7.5 °C 43.0 °F /  6.1 °C 30.08 in /  1018.5 hPa SE 7.0 mph /  11.3 km/h 13.0 mph /  20.9 km/h 91 % 0.00 in /  0 mm 297 W/m2
11:35 45.9 °F /  7.7 °C 43.4 °F /  6.3 °C 30.08 in /  1018.5 hPa SE 7.0 mph /  11.3 km/h 13.0 mph /  20.9 km/h 91 % 0.00 in /  0 mm 304 W/m2
11:40 46.0 °F /  7.8 °C 43.3 °F /  6.3 °C 30.08 in /  1018.5 hPa SSE 7.0 mph /  11.3 km/h 10.0 mph /  16.1 km/h 90 % 0.00 in /  0 mm 327 W/m2
11:45 46.4 °F /  8 °C 43.6 °F /  6.4 °C 30.08 in /  1018.5 hPa SSE 6.0 mph /  9.7 km/h 10.0 mph /  16.1 km/h 90 % 0.00 in /  0 mm 403 W/m2
11:51 46.8 °F /  8.2 °C 43.7 °F /  6.5 °C 30.08 in /  1018.5 hPa SSE 7.0 mph /  11.3 km/h 13.0 mph /  20.9 km/h 89 % 0.00 in /  0 mm 364 W/m2
11:56 47.1 °F /  8.4 °C 43.7 °F /  6.5 °C 30.07 in /  1018.2 hPa SE 8.0 mph /  12.9 km/h 13.0 mph /  20.9 km/h 88 % 0.00 in /  0 mm 336 W/m2
11:58 47.3 °F /  8.5 °C 43.9 °F /  6.6 °C 30.07 in /  1018.2 hPa SE 8.0 mph /  12.9 km/h 12.0 mph /  19.3 km/h 88 % 0.00 in /  0 mm 670 W/m2
12:03 47.8 °F /  8.8 °C 44.2 °F /  6.8 °C 30.07 in /  1018.2 hPa SE 7.0 mph /  11.3 km/h 12.0 mph /  19.3 km/h 87 % 0.00 in /  0 mm 404 W/m2
12:08 48.4 °F /  9.1 °C 44.7 °F /  7.1 °C 30.07 in /  1018.2 hPa SE 7.0 mph /  11.3 km/h 12.0 mph /  19.3 km/h 87 % 0.00 in /  0 mm 374 W/m2
12:13 48.7 °F /  9.3 °C 44.7 °F /  7.1 °C 30.07 in /  1018.2 hPa SE 6.0 mph /  9.7 km/h 13.0 mph /  20.9 km/h 86 % 0.00 in /  0 mm 737 W/m2
12:18 48.9 °F /  9.4 °C 44.6 °F /  7 °C 30.08 in /  1018.5 hPa SE 7.0 mph /  11.3 km/h 13.0 mph /  20.9 km/h 85 % 0.00 in /  0 mm 664 W/m2
12:23 49.3 °F /  9.6 °C 44.6 °F /  7 °C 30.07 in /  1018.2 hPa SSE 8.0 mph /  12.9 km/h 12.0 mph /  19.3 km/h 84 % 0.00 in /  0 mm 724 W/m2
12:28 49.5 °F /  9.7 °C 44.5 °F /  6.9 °C 30.07 in /  1018.2 hPa SSE 8.0 mph /  12.9 km/h 12.0 mph /  19.3 km/h 83 % 0.00 in /  0 mm 294 W/m2
12:33 49.8 °F /  9.9 °C 45.2 °F /  7.3 °C 30.07 in /  1018.2 hPa SE 8.0 mph /  12.9 km/h 13.0 mph /  20.9 km/h 84 % 0.00 in /  0 mm 635 W/m2
12:38 50.2 °F /  10.1 °C 45.2 °F /  7.3 °C 30.06 in /  1017.8 hPa SE 8.0 mph /  12.9 km/h 13.0 mph /  20.9 km/h 83 % 0.00 in /  0 mm 686 W/m2
12:43 50.5 °F /  10.3 °C 45.2 °F /  7.3 °C 30.06 in /  1017.8 hPa SE 8.0 mph /  12.9 km/h 13.0 mph /  20.9 km/h 82 % 0.00 in /  0 mm 686 W/m2
12:48 50.7 °F /  10.4 °C 45.1 °F /  7.3 °C 30.06 in /  1017.8 hPa SE 7.0 mph /  11.3 km/h 11.0 mph /  17.7 km/h 81 % 0.00 in /  0 mm 691 W/m2
12:53 51.3 °F /  10.7 °C 46.0 °F /  7.8 °C 30.05 in /  1017.5 hPa SE 7.0 mph /  11.3 km/h 11.0 mph /  17.7 km/h 82 % 0.00 in /  0 mm 608 W/m2
12:58 51.8 °F /  11 °C 45.8 °F /  7.7 °C 30.05 in /  1017.5 hPa SE 6.0 mph /  9.7 km/h 13.0 mph /  20.9 km/h 80 % 0.00 in /  0 mm 538 W/m2
13:03 52.2 °F /  11.2 °C 46.2 °F /  7.9 °C 30.06 in /  1017.8 hPa SE 7.0 mph /  11.3 km/h 13.0 mph /  20.9 km/h 80 % 0.00 in /  0 mm 670 W/m2
13:08 52.3 °F /  11.3 °C 46.0 °F /  7.8 °C 30.06 in /  1017.8 hPa SE 8.0 mph /  12.9 km/h 15.0 mph /  24.1 km/h 79 % 0.00 in /  0 mm 661 W/m2
13:13 52.7 °F /  11.5 °C 46.4 °F /  8 °C 30.05 in /  1017.5 hPa SE 8.0 mph /  12.9 km/h 15.0 mph /  24.1 km/h 79 % 0.00 in /  0 mm 656 W/m2
13:18 53.1 °F /  11.7 °C 46.7 °F /  8.2 °C 30.05 in /  1017.5 hPa SE 7.0 mph /  11.3 km/h 12.0 mph /  19.3 km/h 79 % 0.00 in /  0 mm 650 W/m2
13:23 53.2 °F /  11.8 °C 46.6 °F /  8.1 °C 30.05 in /  1017.5 hPa SE 8.0 mph /  12.9 km/h 12.0 mph /  19.3 km/h 78 % 0.00 in /  0 mm 635 W/m2
13:28 53.8 °F /  12.1 °C 47.1 °F /  8.4 °C 30.05 in /  1017.5 hPa SE 8.0 mph /  12.9 km/h 13.0 mph /  20.9 km/h 78 % 0.00 in /  0 mm 652 W/m2
13:33 54.1 °F /  12.3 °C 47.1 °F /  8.4 °C 30.04 in /  1017.2 hPa SE 7.0 mph /  11.3 km/h 13.0 mph /  20.9 km/h 77 % 0.00 in /  0 mm 654 W/m2
13:38 54.7 °F /  12.6 °C 47.3 °F /  8.5 °C 30.05 in /  1017.5 hPa SE 6.0 mph /  9.7 km/h 11.0 mph /  17.7 km/h 76 % 0.00 in /  0 mm 628 W/m2
13:43 54.7 °F /  12.6 °C 46.9 °F /  8.3 °C 30.04 in /  1017.2 hPa SSE 7.0 mph /  11.3 km/h 13.0 mph /  20.9 km/h 75 % 0.00 in /  0 mm 446 W/m2
13:48 54.7 °F /  12.6 °C 46.9 °F /  8.3 °C 30.04 in /  1017.2 hPa South 7.0 mph /  11.3 km/h 13.0 mph /  20.9 km/h 75 % 0.00 in /  0 mm 401 W/m2
13:53 54.9 °F /  12.7 °C 47.4 °F /  8.6 °C 30.04 in /  1017.2 hPa South 6.0 mph /  9.7 km/h 11.0 mph /  17.7 km/h 76 % 0.00 in /  0 mm 666 W/m2
13:58 55.6 °F /  13.1 °C 47.4 °F /  8.6 °C 30.04 in /  1017.2 hPa SE 5.0 mph /  8 km/h 11.0 mph /  17.7 km/h 74 % 0.00 in /  0 mm 598 W/m2
14:03 55.8 °F /  13.2 °C 47.6 °F /  8.7 °C 30.04 in /  1017.2 hPa SE 6.0 mph /  9.7 km/h 12.0 mph /  19.3 km/h 74 % 0.00 in /  0 mm 585 W/m2
14:08 55.9 °F /  13.3 °C 47.8 °F /  8.8 °C 30.04 in /  1017.2 hPa SE 6.0 mph /  9.7 km/h 12.0 mph /  19.3 km/h 74 % 0.00 in /  0 mm 612 W/m2
14:13 56.1 °F /  13.4 °C 47.6 °F /  8.7 °C 30.04 in /  1017.2 hPa SE 7.0 mph /  11.3 km/h 12.0 mph /  19.3 km/h 73 % 0.00 in /  0 mm 591 W/m2
14:19 56.7 °F /  13.7 °C 48.5 °F /  9.2 °C 30.04 in /  1017.2 hPa SE 7.0 mph /  11.3 km/h 12.0 mph /  19.3 km/h 74 % 0.00 in /  0 mm 638 W/m2
14:24 57.0 °F /  13.9 °C 48.4 °F /  9.1 °C 30.03 in /  1016.8 hPa SE 7.0 mph /  11.3 km/h 11.0 mph /  17.7 km/h 73 % 0.00 in /  0 mm 631 W/m2
14:29 57.6 °F /  14.2 °C 48.6 °F /  9.2 °C 30.03 in /  1016.8 hPa SSE 6.0 mph /  9.7 km/h 11.0 mph /  17.7 km/h 72 % 0.00 in /  0 mm 603 W/m2
14:34 57.7 °F /  14.3 °C 48.4 °F /  9.1 °C 30.03 in /  1016.8 hPa SSE 6.0 mph /  9.7 km/h 11.0 mph /  17.7 km/h 71 % 0.00 in /  0 mm 570 W/m2
14:39 57.7 °F /  14.3 °C 48.0 °F /  8.9 °C 30.02 in /  1016.5 hPa SSE 6.0 mph /  9.7 km/h 12.0 mph /  19.3 km/h 70 % 0.00 in /  0 mm 359 W/m2
14:44 57.7 °F /  14.3 °C 48.0 °F /  8.9 °C 30.02 in /  1016.5 hPa South 8.0 mph /  12.9 km/h 14.0 mph /  22.5 km/h 70 % 0.00 in /  0 mm 504 W/m2
14:49 57.6 °F /  14.2 °C 48.2 °F /  9 °C 30.02 in /  1016.5 hPa South 9.0 mph /  14.5 km/h 14.0 mph /  22.5 km/h 71 % 0.00 in /  0 mm 214 W/m2
14:54 57.6 °F /  14.2 °C 47.5 °F /  8.6 °C 30.02 in /  1016.5 hPa South 9.0 mph /  14.5 km/h 16.0 mph /  25.7 km/h 69 % 0.00 in /  0 mm 272 W/m2
14:59 57.2 °F /  14 °C 47.5 °F /  8.6 °C 30.02 in /  1016.5 hPa SSW 9.0 mph /  14.5 km/h 16.0 mph /  25.7 km/h 70 % 0.00 in /  0 mm 234 W/m2
15:04 56.7 °F /  13.7 °C 47.4 °F /  8.6 °C 30.02 in /  1016.5 hPa SSW 9.0 mph /  14.5 km/h 18.0 mph /  29 km/h 71 % 0.00 in /  0 mm 279 W/m2
15:09 56.5 °F /  13.6 °C 47.2 °F /  8.4 °C 30.02 in /  1016.5 hPa South 10.0 mph /  16.1 km/h 18.0 mph /  29 km/h 71 % 0.00 in /  0 mm 279 W/m2
15:14 56.5 °F /  13.6 °C 47.6 °F /  8.7 °C 30.02 in /  1016.5 hPa South 9.0 mph /  14.5 km/h 16.0 mph /  25.7 km/h 72 % 0.00 in /  0 mm 285 W/m2
15:19 56.5 °F /  13.6 °C 47.2 °F /  8.4 °C 30.02 in /  1016.5 hPa South 9.0 mph /  14.5 km/h 19.0 mph /  30.6 km/h 71 % 0.00 in /  0 mm 345 W/m2
15:24 56.3 °F /  13.5 °C 47.4 °F /  8.6 °C 30.02 in /  1016.5 hPa SSW 10.0 mph /  16.1 km/h 19.0 mph /  30.6 km/h 72 % 0.00 in /  0 mm 334 W/m2
15:29 55.9 °F /  13.3 °C 47.0 °F /  8.3 °C 30.02 in /  1016.5 hPa SSW 10.0 mph /  16.1 km/h 16.0 mph /  25.7 km/h 72 % 0.00 in /  0 mm 272 W/m2
15:34 55.9 °F /  13.3 °C 47.4 °F /  8.6 °C 30.02 in /  1016.5 hPa SSW 9.0 mph /  14.5 km/h 16.0 mph /  25.7 km/h 73 % 0.00 in /  0 mm 146 W/m2
15:39 55.8 °F /  13.2 °C 47.2 °F /  8.4 °C 30.02 in /  1016.5 hPa SSW 8.0 mph /  12.9 km/h 14.0 mph /  22.5 km/h 73 % 0.00 in /  0 mm 95 W/m2
15:44 55.6 °F /  13.1 °C 47.4 °F /  8.6 °C 30.02 in /  1016.5 hPa SSW 7.0 mph /  11.3 km/h 11.0 mph /  17.7 km/h 74 % 0.00 in /  0 mm 107 W/m2
15:49 55.4 °F /  13 °C 47.2 °F /  8.4 °C 30.02 in /  1016.5 hPa SSW 7.0 mph /  11.3 km/h 14.0 mph /  22.5 km/h 74 % 0.00 in /  0 mm 69 W/m2
15:54 55.4 °F /  13 °C 47.6 °F /  8.7 °C 30.02 in /  1016.5 hPa SSW 8.0 mph /  12.9 km/h 18.0 mph /  29 km/h 75 % 0.00 in /  0 mm 56 W/m2
15:59 55.2 °F /  12.9 °C 48.1 °F /  8.9 °C 30.02 in /  1016.5 hPa SSW 7.0 mph /  11.3 km/h 18.0 mph /  29 km/h 77 % 0.00 in /  0 mm 81 W/m2
16:04 54.9 °F /  12.7 °C 48.1 °F /  8.9 °C 30.02 in /  1016.5 hPa SSW 8.0 mph /  12.9 km/h 18.0 mph /  29 km/h 78 % 0.00 in /  0 mm 128 W/m2
16:09 54.7 °F /  12.6 °C 48.3 °F /  9.1 °C 30.02 in /  1016.5 hPa SSW 8.0 mph /  12.9 km/h 18.0 mph /  29 km/h 79 % 0.00 in /  0 mm 178 W/m2
16:14 54.5 °F /  12.5 °C 48.1 °F /  8.9 °C 30.02 in /  1016.5 hPa SSW 6.0 mph /  9.7 km/h 10.0 mph /  16.1 km/h 79 % 0.00 in /  0 mm 218 W/m2
16:19 54.5 °F /  12.5 °C 48.1 °F /  8.9 °C 30.02 in /  1016.5 hPa SSW 6.0 mph /  9.7 km/h 10.0 mph /  16.1 km/h 79 % 0.00 in /  0 mm 237 W/m2
16:24 54.7 °F /  12.6 °C 48.3 °F /  9.1 °C 30.02 in /  1016.5 hPa SSW 6.0 mph /  9.7 km/h 11.0 mph /  17.7 km/h 79 % 0.00 in /  0 mm 475 W/m2
16:29 55.0 °F /  12.8 °C 48.3 °F /  9.1 °C 30.01 in /  1016.1 hPa SSW 6.0 mph /  9.7 km/h 11.0 mph /  17.7 km/h 78 % 0.00 in /  0 mm 483 W/m2
16:34 55.6 °F /  13.1 °C 48.5 °F /  9.2 °C 30.01 in /  1016.1 hPa SSW 6.0 mph /  9.7 km/h 12.0 mph /  19.3 km/h 77 % 0.00 in /  0 mm 536 W/m2
16:39 56.1 °F /  13.4 °C 48.7 °F /  9.3 °C 30.01 in /  1016.1 hPa SSW 7.0 mph /  11.3 km/h 12.0 mph /  19.3 km/h 76 % 0.00 in /  0 mm 475 W/m2
16:44 56.7 °F /  13.7 °C 48.8 °F /  9.3 °C 30.01 in /  1016.1 hPa SSW 6.0 mph /  9.7 km/h 12.0 mph /  19.3 km/h 75 % 0.00 in /  0 mm 139 W/m2
16:49 56.5 °F /  13.6 °C 48.3 °F /  9.1 °C 30.01 in /  1016.1 hPa SSW 7.0 mph /  11.3 km/h 12.0 mph /  19.3 km/h 74 % 0.00 in /  0 mm 265 W/m2
16:54 56.5 °F /  13.6 °C 48.3 °F /  9.1 °C 30.01 in /  1016.1 hPa SSW 7.0 mph /  11.3 km/h 12.0 mph /  19.3 km/h 74 % 0.00 in /  0 mm 362 W/m2
16:59 56.8 °F /  13.8 °C 49.0 °F /  9.4 °C 30.01 in /  1016.1 hPa SSW 7.0 mph /  11.3 km/h 12.0 mph /  19.3 km/h 75 % 0.00 in /  0 mm 339 W/m2
17:04 57.4 °F /  14.1 °C 48.4 °F /  9.1 °C 30.01 in /  1016.1 hPa SSW 9.0 mph /  14.5 km/h 14.0 mph /  22.5 km/h 72 % 0.00 in /  0 mm 292 W/m2
17:09 57.4 °F /  14.1 °C 48.4 °F /  9.1 °C 30.01 in /  1016.1 hPa SW 9.0 mph /  14.5 km/h 15.0 mph /  24.1 km/h 72 % 0.00 in /  0 mm 69 W/m2
17:10 57.4 °F /  14.1 °C 48.4 °F /  9.1 °C 30.01 in /  1016.1 hPa SSW 10.0 mph /  16.1 km/h 15.0 mph /  24.1 km/h 72 % 0.00 in /  0 mm 60 W/m2
17:15 57.0 °F /  13.9 °C 48.1 °F /  8.9 °C 30.01 in /  1016.1 hPa SW 9.0 mph /  14.5 km/h 20.0 mph /  32.2 km/h 72 % 0.00 in /  0 mm 258 W/m2
17:20 56.8 °F /  13.8 °C 47.9 °F /  8.8 °C 30.00 in /  1015.8 hPa SW 9.0 mph /  14.5 km/h 20.0 mph /  32.2 km/h 72 % 0.00 in /  0 mm 95 W/m2
17:25 56.5 °F /  13.6 °C 47.6 °F /  8.7 °C 30.00 in /  1015.8 hPa SSW 9.0 mph /  14.5 km/h 18.0 mph /  29 km/h 72 % 0.00 in /  0 mm 77 W/m2
17:30 55.9 °F /  13.3 °C 47.4 °F /  8.6 °C 30.01 in /  1016.1 hPa SSW 9.0 mph /  14.5 km/h 18.0 mph /  29 km/h 73 % 0.00 in /  0 mm 72 W/m2
17:35 55.8 °F /  13.2 °C 47.6 °F /  8.7 °C 30.01 in /  1016.1 hPa SW 8.0 mph /  12.9 km/h 15.0 mph /  24.1 km/h 74 % 0.00 in /  0 mm 83 W/m2
17:37 55.8 °F /  13.2 °C 47.6 °F /  8.7 °C 30.01 in /  1016.1 hPa SW 8.0 mph /  12.9 km/h 15.0 mph /  24.1 km/h 74 % 0.00 in /  0 mm 77 W/m2
17:42 55.6 °F /  13.1 °C 47.4 °F /  8.6 °C 30.01 in /  1016.1 hPa SSW 8.0 mph /  12.9 km/h 14.0 mph /  22.5 km/h 74 % 0.00 in /  0 mm 148 W/m2
17:47 55.8 °F /  13.2 °C 48.0 °F /  8.9 °C 30.01 in /  1016.1 hPa SSW 7.0 mph /  11.3 km/h 13.0 mph /  20.9 km/h 75 % 0.00 in /  0 mm 204 W/m2
17:52 55.9 °F /  13.3 °C 47.8 °F /  8.8 °C 30.01 in /  1016.1 hPa SSW 8.0 mph /  12.9 km/h 13.0 mph /  20.9 km/h 74 % 0.00 in /  0 mm 100 W/m2
17:57 55.8 °F /  13.2 °C 48.0 °F /  8.9 °C 30.01 in /  1016.1 hPa SSW 8.0 mph /  12.9 km/h 13.0 mph /  20.9 km/h 75 % 0.00 in /  0 mm 104 W/m2
18:02 55.8 °F /  13.2 °C 48.0 °F /  8.9 °C 30.01 in /  1016.1 hPa SSW 7.0 mph /  11.3 km/h 13.0 mph /  20.9 km/h 75 % 0.00 in /  0 mm 54 W/m2
18:07 55.6 °F /  13.1 °C 47.8 °F /  8.8 °C 30.01 in /  1016.1 hPa SSW 8.0 mph /  12.9 km/h 14.0 mph /  22.5 km/h 75 % 0.00 in /  0 mm 44 W/m2
18:12 55.6 °F /  13.1 °C 47.8 °F /  8.8 °C 30.01 in /  1016.1 hPa SSW 7.0 mph /  11.3 km/h 14.0 mph /  22.5 km/h 75 % 0.00 in /  0 mm 35 W/m2
18:17 55.4 °F /  13 °C 47.6 °F /  8.7 °C 30.01 in /  1016.1 hPa SSW 7.0 mph /  11.3 km/h 14.0 mph /  22.5 km/h 75 % 0.00 in /  0 mm 51 W/m2
18:22 55.2 °F /  12.9 °C 47.8 °F /  8.8 °C 30.01 in /  1016.1 hPa SSW 7.0 mph /  11.3 km/h 14.0 mph /  22.5 km/h 76 % 0.00 in /  0 mm 46 W/m2
18:27 55.2 °F /  12.9 °C 47.4 °F /  8.6 °C 30.01 in /  1016.1 hPa SSW 7.0 mph /  11.3 km/h 15.0 mph /  24.1 km/h 75 % 0.00 in /  0 mm 35 W/m2
18:32 55.2 °F /  12.9 °C 47.1 °F /  8.4 °C 30.01 in /  1016.1 hPa SW 8.0 mph /  12.9 km/h 15.0 mph /  24.1 km/h 74 % 0.00 in /  0 mm 23 W/m2
18:37 55.2 °F /  12.9 °C 47.1 °F /  8.4 °C 30.01 in /  1016.1 hPa SSW 8.0 mph /  12.9 km/h 18.0 mph /  29 km/h 74 % 0.00 in /  0 mm 30 W/m2
18:42 55.2 °F /  12.9 °C 47.4 °F /  8.6 °C 30.01 in /  1016.1 hPa SSW 7.0 mph /  11.3 km/h 18.0 mph /  29 km/h 75 % 0.00 in /  0 mm 19 W/m2
18:47 55.0 °F /  12.8 °C 46.9 °F /  8.3 °C 30.01 in /  1016.1 hPa SW 8.0 mph /  12.9 km/h 16.0 mph /  25.7 km/h 74 % 0.00 in /  0 mm 25 W/m2
18:52 55.0 °F /  12.8 °C 47.3 °F /  8.5 °C 30.01 in /  1016.1 hPa SSW 8.0 mph /  12.9 km/h 16.0 mph /  25.7 km/h 75 % 0.00 in /  0 mm 25 W/m2
18:57 55.0 °F /  12.8 °C 47.3 °F /  8.5 °C 30.01 in /  1016.1 hPa SSW 7.0 mph /  11.3 km/h 11.0 mph /  17.7 km/h 75 % 0.00 in /  0 mm 21 W/m2
19:02 54.9 °F /  12.7 °C 47.1 °F /  8.4 °C 30.01 in /  1016.1 hPa SSW 7.0 mph /  11.3 km/h 11.0 mph /  17.7 km/h 75 % 0.00 in /  0 mm 18 W/m2
19:07 54.9 °F /  12.7 °C 47.1 °F /  8.4 °C 30.01 in /  1016.1 hPa SSW 7.0 mph /  11.3 km/h 13.0 mph /  20.9 km/h 75 % 0.00 in /  0 mm 18 W/m2
19:12 54.7 °F /  12.6 °C 47.3 °F /  8.5 °C 30.01 in /  1016.1 hPa SSW 7.0 mph /  11.3 km/h 13.0 mph /  20.9 km/h 76 % 0.00 in /  0 mm 14 W/m2
19:18 54.7 °F /  12.6 °C 47.3 °F /  8.5 °C 30.02 in /  1016.5 hPa SSW 6.0 mph /  9.7 km/h 10.0 mph /  16.1 km/h 76 % 0.00 in /  0 mm 9 W/m2
19:23 54.7 °F /  12.6 °C 47.3 °F /  8.5 °C 30.02 in /  1016.5 hPa SSW 5.0 mph /  8 km/h 9.0 mph /  14.5 km/h 76 % 0.00 in /  0 mm 7 W/m2
19:28 54.5 °F /  12.5 °C 47.1 °F /  8.4 °C 30.02 in /  1016.5 hPa SW 4.0 mph /  6.4 km/h 8.0 mph /  12.9 km/h 76 % 0.00 in /  0 mm 5 W/m2
19:33 54.5 °F /  12.5 °C 47.1 °F /  8.4 °C 30.02 in /  1016.5 hPa SSW 2.0 mph /  3.2 km/h 8.0 mph /  12.9 km/h 76 % 0.00 in /  0 mm 0 W/m2
19:38 54.3 °F /  12.4 °C 47.3 °F /  8.5 °C 30.02 in /  1016.5 hPa South 2.0 mph /  3.2 km/h 9.0 mph /  14.5 km/h 77 % 0.00 in /  0 mm 0 W/m2
19:43 54.3 °F /  12.4 °C 47.3 °F /  8.5 °C 30.02 in /  1016.5 hPa South 3.0 mph /  4.8 km/h 9.0 mph /  14.5 km/h 77 % 0.00 in /  0 mm 0 W/m2
19:48 54.3 °F /  12.4 °C 47.3 °F /  8.5 °C 30.02 in /  1016.5 hPa South 4.0 mph /  6.4 km/h 10.0 mph /  16.1 km/h 77 % 0.00 in /  0 mm 0 W/m2
19:53 54.3 °F /  12.4 °C 47.3 °F /  8.5 °C 30.02 in /  1016.5 hPa South 4.0 mph /  6.4 km/h 10.0 mph /  16.1 km/h 77 % 0.00 in /  0 mm 0 W/m2
19:58 54.1 °F /  12.3 °C 47.1 °F /  8.4 °C 30.02 in /  1016.5 hPa South 4.0 mph /  6.4 km/h 10.0 mph /  16.1 km/h 77 % 0.00 in /  0 mm 0 W/m2
20:03 54.1 °F /  12.3 °C 47.4 °F /  8.6 °C 30.02 in /  1016.5 hPa SSW 5.0 mph /  8 km/h 10.0 mph /  16.1 km/h 78 % 0.00 in /  0 mm 0 W/m2
20:08 54.0 °F /  12.2 °C 47.3 °F /  8.5 °C 30.02 in /  1016.5 hPa SSW 7.0 mph /  11.3 km/h 13.0 mph /  20.9 km/h 78 % 0.00 in /  0 mm 0 W/m2
20:13 54.0 °F /  12.2 °C 47.6 °F /  8.7 °C 30.02 in /  1016.5 hPa SW 7.0 mph /  11.3 km/h 13.0 mph /  20.9 km/h 79 % 0.00 in /  0 mm 0 W/m2
20:18 53.8 °F /  12.1 °C 47.4 °F /  8.6 °C 30.02 in /  1016.5 hPa SW 6.0 mph /  9.7 km/h 12.0 mph /  19.3 km/h 79 % 0.00 in /  0 mm 0 W/m2
20:23 53.6 °F /  12 °C 47.6 °F /  8.7 °C 30.02 in /  1016.5 hPa SSW 7.0 mph /  11.3 km/h 12.0 mph /  19.3 km/h 80 % 0.00 in /  0 mm 0 W/m2
20:28 53.4 °F /  11.9 °C 47.4 °F /  8.6 °C 30.02 in /  1016.5 hPa SSW 7.0 mph /  11.3 km/h 13.0 mph /  20.9 km/h 80 % 0.00 in /  0 mm 0 W/m2
20:33 53.4 °F /  11.9 °C 47.4 °F /  8.6 °C 30.02 in /  1016.5 hPa SSW 6.0 mph /  9.7 km/h 13.0 mph /  20.9 km/h 80 % 0.00 in /  0 mm 0 W/m2
20:38 53.2 °F /  11.8 °C 47.6 °F /  8.7 °C 30.02 in /  1016.5 hPa SSW 6.0 mph /  9.7 km/h 9.0 mph /  14.5 km/h 81 % 0.00 in /  0 mm 0 W/m2
20:43 53.2 °F /  11.8 °C 47.6 °F /  8.7 °C 30.02 in /  1016.5 hPa SSW 5.0 mph /  8 km/h 9.0 mph /  14.5 km/h 81 % 0.00 in /  0 mm 0 W/m2
20:48 53.1 °F /  11.7 °C 47.4 °F /  8.6 °C 30.02 in /  1016.5 hPa SSW 4.0 mph /  6.4 km/h 9.0 mph /  14.5 km/h 81 % 0.00 in /  0 mm 0 W/m2
20:53 52.9 °F /  11.6 °C 47.2 °F /  8.4 °C 30.02 in /  1016.5 hPa SSW 5.0 mph /  8 km/h 10.0 mph /  16.1 km/h 81 % 0.00 in /  0 mm 0 W/m2
20:58 52.9 °F /  11.6 °C 47.2 °F /  8.4 °C 30.02 in /  1016.5 hPa SSW 6.0 mph /  9.7 km/h 10.0 mph /  16.1 km/h 81 % 0.00 in /  0 mm 0 W/m2
21:03 52.7 °F /  11.5 °C 47.0 °F /  8.3 °C 30.03 in /  1016.8 hPa SSW 5.0 mph /  8 km/h 9.0 mph /  14.5 km/h 81 % 0.00 in /  0 mm 0 W/m2
21:08 52.5 °F /  11.4 °C 46.9 °F /  8.3 °C 30.02 in /  1016.5 hPa SW 4.0 mph /  6.4 km/h 9.0 mph /  14.5 km/h 81 % 0.00 in /  0 mm 0 W/m2
21:13 52.5 °F /  11.4 °C 46.9 °F /  8.3 °C 30.03 in /  1016.8 hPa SW 4.0 mph /  6.4 km/h 7.0 mph /  11.3 km/h 81 % 0.00 in /  0 mm 0 W/m2
21:18 52.3 °F /  11.3 °C 46.7 °F /  8.2 °C 30.03 in /  1016.8 hPa WSW 5.0 mph /  8 km/h 9.0 mph /  14.5 km/h 81 % 0.00 in /  0 mm 0 W/m2
21:23 52.3 °F /  11.3 °C 46.7 °F /  8.2 °C 30.03 in /  1016.8 hPa WSW 5.0 mph /  8 km/h 9.0 mph /  14.5 km/h 81 % 0.00 in /  0 mm 0 W/m2
21:28 52.2 °F /  11.2 °C 46.5 °F /  8.1 °C 30.03 in /  1016.8 hPa WSW 4.0 mph /  6.4 km/h 10.0 mph /  16.1 km/h 81 % 0.00 in /  0 mm 0 W/m2
21:33 52.2 °F /  11.2 °C 46.5 °F /  8.1 °C 30.02 in /  1016.5 hPa SW 5.0 mph /  8 km/h 10.0 mph /  16.1 km/h 81 % 0.00 in /  0 mm 0 W/m2
21:38 52.2 °F /  11.2 °C 46.5 °F /  8.1 °C 30.03 in /  1016.8 hPa SW 4.0 mph /  6.4 km/h 8.0 mph /  12.9 km/h 81 % 0.00 in /  0 mm 0 W/m2
21:43 52.2 °F /  11.2 °C 46.5 °F /  8.1 °C 30.03 in /  1016.8 hPa SW 4.0 mph /  6.4 km/h 7.0 mph /  11.3 km/h 81 % 0.00 in /  0 mm 0 W/m2
21:48 52.0 °F /  11.1 °C 46.3 °F /  7.9 °C 30.03 in /  1016.8 hPa SW 3.0 mph /  4.8 km/h 8.0 mph /  12.9 km/h 81 % 0.00 in /  0 mm 0 W/m2
21:53 52.0 °F /  11.1 °C 46.3 °F /  7.9 °C 30.03 in /  1016.8 hPa SW 3.0 mph /  4.8 km/h 9.0 mph /  14.5 km/h 81 % 0.00 in /  0 mm 0 W/m2
21:59 52.0 °F /  11.1 °C 46.3 °F /  7.9 °C 30.03 in /  1016.8 hPa SSW 4.0 mph /  6.4 km/h 9.0 mph /  14.5 km/h 81 % 0.00 in /  0 mm 0 W/m2
22:04 52.0 °F /  11.1 °C 46.7 °F /  8.2 °C 30.03 in /  1016.8 hPa SSW 4.0 mph /  6.4 km/h 9.0 mph /  14.5 km/h 82 % 0.00 in /  0 mm 0 W/m2
22:09 51.8 °F /  11 °C 46.5 °F /  8.1 °C 30.02 in /  1016.5 hPa South 4.0 mph /  6.4 km/h 8.0 mph /  12.9 km/h 82 % 0.00 in /  0 mm 0 W/m2
22:14 51.8 °F /  11 °C 46.5 °F /  8.1 °C 30.02 in /  1016.5 hPa South 3.0 mph /  4.8 km/h 8.0 mph /  12.9 km/h 82 % 0.00 in /  0 mm 0 W/m2
22:19 51.6 °F /  10.9 °C 46.3 °F /  7.9 °C 30.02 in /  1016.5 hPa South 4.0 mph /  6.4 km/h 9.0 mph /  14.5 km/h 82 % 0.00 in /  0 mm 0 W/m2
22:24 51.6 °F /  10.9 °C 46.6 °F /  8.1 °C 30.02 in /  1016.5 hPa SSW 4.0 mph /  6.4 km/h 9.0 mph /  14.5 km/h 83 % 0.00 in /  0 mm 0 W/m2
22:29 51.6 °F /  10.9 °C 46.6 °F /  8.1 °C 30.02 in /  1016.5 hPa SSW 4.0 mph /  6.4 km/h 8.0 mph /  12.9 km/h 83 % 0.00 in /  0 mm 0 W/m2
22:34 51.6 °F /  10.9 °C 46.6 °F /  8.1 °C 30.02 in /  1016.5 hPa SSW 5.0 mph /  8 km/h 13.0 mph /  20.9 km/h 83 % 0.00 in /  0 mm 0 W/m2
22:39 51.6 °F /  10.9 °C 46.6 °F /  8.1 °C 30.02 in /  1016.5 hPa SSW 4.0 mph /  6.4 km/h 13.0 mph /  20.9 km/h 83 % 0.00 in /  0 mm 0 W/m2
22:44 51.6 °F /  10.9 °C 46.6 °F /  8.1 °C 30.02 in /  1016.5 hPa SW 3.0 mph /  4.8 km/h 7.0 mph /  11.3 km/h 83 % 0.00 in /  0 mm 0 W/m2
22:49 51.6 °F /  10.9 °C 46.6 °F /  8.1 °C 30.02 in /  1016.5 hPa SSW 5.0 mph /  8 km/h 11.0 mph /  17.7 km/h 83 % 0.00 in /  0 mm 0 W/m2
22:54 51.6 °F /  10.9 °C 46.6 °F /  8.1 °C 30.03 in /  1016.8 hPa SW 6.0 mph /  9.7 km/h 11.0 mph /  17.7 km/h 83 % 0.00 in /  0 mm 0 W/m2
22:59 51.6 °F /  10.9 °C 46.6 °F /  8.1 °C 30.03 in /  1016.8 hPa SW 6.0 mph /  9.7 km/h 11.0 mph /  17.7 km/h 83 % 0.00 in /  0 mm 0 W/m2
23:00 51.6 °F /  10.9 °C 46.6 °F /  8.1 °C 30.03 in /  1016.8 hPa SW 6.0 mph /  9.7 km/h 11.0 mph /  17.7 km/h 83 % 0.00 in /  0 mm 0 W/m2
23:05 51.8 °F /  11 °C 46.8 °F /  8.2 °C 30.03 in /  1016.8 hPa SW 6.0 mph /  9.7 km/h 10.0 mph /  16.1 km/h 83 % 0.00 in /  0 mm 0 W/m2
23:07 51.8 °F /  11 °C 46.8 °F /  8.2 °C 30.03 in /  1016.8 hPa SW 6.0 mph /  9.7 km/h 11.0 mph /  17.7 km/h 83 % 0.00 in /  0 mm 0 W/m2
23:12 51.8 °F /  11 °C 46.8 °F /  8.2 °C 30.03 in /  1016.8 hPa SW 6.0 mph /  9.7 km/h 11.0 mph /  17.7 km/h 83 % 0.00 in /  0 mm 0 W/m2
23:17 51.8 °F /  11 °C 46.8 °F /  8.2 °C 30.03 in /  1016.8 hPa SW 6.0 mph /  9.7 km/h 10.0 mph /  16.1 km/h 83 % 0.00 in /  0 mm 0 W/m2
23:23 51.8 °F /  11 °C 46.8 °F /  8.2 °C 30.03 in /  1016.8 hPa SW 5.0 mph /  8 km/h 9.0 mph /  14.5 km/h 83 % 0.00 in /  0 mm 0 W/m2
23:28 51.8 °F /  11 °C 46.8 °F /  8.2 °C 30.03 in /  1016.8 hPa SSW 6.0 mph /  9.7 km/h 11.0 mph /  17.7 km/h 83 % 0.00 in /  0 mm 0 W/m2
23:33 51.8 °F /  11 °C 47.1 °F /  8.4 °C 30.03 in /  1016.8 hPa SSW 7.0 mph /  11.3 km/h 11.0 mph /  17.7 km/h 84 % 0.00 in /  0 mm 0 W/m2
23:38 51.6 °F /  10.9 °C 46.9 °F /  8.3 °C 30.03 in /  1016.8 hPa SSW 7.0 mph /  11.3 km/h 14.0 mph /  22.5 km/h 84 % 0.00 in /  0 mm 0 W/m2
23:43 51.6 °F /  10.9 °C 47.3 °F /  8.5 °C 30.03 in /  1016.8 hPa SSW 7.0 mph /  11.3 km/h 14.0 mph /  22.5 km/h 85 % 0.00 in /  0 mm 0 W/m2
23:48 51.4 °F /  10.8 °C 47.1 °F /  8.4 °C 30.03 in /  1016.8 hPa SSW 7.0 mph /  11.3 km/h 11.0 mph /  17.7 km/h 85 % 0.00 in /  0 mm 0 W/m2
23:53 51.4 °F /  10.8 °C 47.1 °F /  8.4 °C 30.03 in /  1016.8 hPa SSW 6.0 mph /  9.7 km/h 11.0 mph /  17.7 km/h 85 % 0.00 in /  0 mm 0 W/m2
23:58 51.3 °F /  10.7 °C 47.2 °F /  8.4 °C 30.03 in /  1016.8 hPa SSW 3.0 mph /  4.8 km/h 7.0 mph /  11.3 km/h 86 % 0.00 in /  0 mm 0 W/m2
Delerius-Weather
Compliments of Weather Underground - 2.25 mb

Data updates at regular intervals.